Terminal Aerodrome Forecast
Issued by NWS Binghamton, NY

Home | Current Version | Previous Version | Text Only | Print | Product List | Glossary On
Versions: 1 2 3 4 5 6 7 8 9 10 11 12 13 14 15 16 17 18 19 20 21 22 23
000
FTUS41 KBGM 220500
TAFSYR
TAF
KSYR 220540Z 2206/2306 VRB03KT P6SM SCT015 BKN050
      TEMPO 2206/2209 5SM BR BKN015
     FM220900 VRB03KT 5SM BR BKN015
      TEMPO 2209/2212 2SM BR BKN008
     FM221400 14003KT P6SM BKN040
     FM221900 14005KT 5SM SHRA BR BKN025 OVC035
     FM230100 10004KT 5SM BR BKN025=

USA.gov is the U.S. government's official web portal to all federal, state and local government web resources and services.